createdAt,value
2022-09-15T00:01:20.855Z,19.50
2022-09-15T00:03:49.159Z,19.40
2022-09-15T00:06:17.874Z,19.40
2022-09-15T00:08:46.112Z,19.40
2022-09-15T00:11:19.464Z,19.40
2022-09-15T00:13:47.946Z,19.40
2022-09-15T00:16:19.409Z,19.30
2022-09-15T00:18:48.146Z,19.30
2022-09-15T00:21:19.005Z,19.20
2022-09-15T00:23:47.505Z,19.20
2022-09-15T00:26:19.135Z,19.10
2022-09-15T00:28:48.615Z,19.10
2022-09-15T00:31:20.412Z,19.10
2022-09-15T00:33:49.630Z,19.10
2022-09-15T00:36:18.663Z,19.10
2022-09-15T00:38:47.121Z,19.10
2022-09-15T00:41:18.637Z,19.10
2022-09-15T00:43:51.002Z,19.10
2022-09-15T00:46:23.195Z,19.10
2022-09-15T00:48:59.146Z,19.10
2022-09-15T00:51:33.776Z,19.10
2022-09-15T00:54:05.607Z,19.10
2022-09-15T00:56:36.303Z,19.20
2022-09-15T00:59:08.033Z,19.10
2022-09-15T01:01:37.848Z,19.20
2022-09-15T01:04:06.072Z,19.20
2022-09-15T01:06:39.549Z,19.20
2022-09-15T01:09:13.452Z,19.10
2022-09-15T01:11:42.453Z,19.10
2022-09-15T01:14:10.623Z,19.10
2022-09-15T01:16:51.379Z,19.00
2022-09-15T01:19:54.080Z,19.00
2022-09-15T01:22:35.798Z,19.00
2022-09-15T01:25:09.603Z,18.90
2022-09-15T01:28:25.849Z,18.80
2022-09-15T01:31:01.799Z,18.80
2022-09-15T01:33:35.391Z,18.80
2022-09-15T01:36:11.709Z,18.70
2022-09-15T01:38:48.640Z,18.70
2022-09-15T01:41:19.418Z,18.70
2022-09-15T01:43:54.618Z,18.70
2022-09-15T01:46:27.756Z,18.70
2022-09-15T01:48:57.402Z,18.70
2022-09-15T01:51:26.848Z,18.70
2022-09-15T01:53:57.020Z,18.70
2022-09-15T01:56:25.245Z,18.70
2022-09-15T01:58:53.607Z,18.70
2022-09-15T02:01:32.001Z,18.70
2022-09-15T02:04:04.557Z,18.70
2022-09-15T02:06:39.373Z,18.70
2022-09-15T02:09:13.960Z,18.70
2022-09-15T02:11:49.118Z,18.70
2022-09-15T02:14:21.923Z,18.60
2022-09-15T02:16:55.266Z,18.60
2022-09-15T02:19:31.849Z,18.60
2022-09-15T02:22:07.817Z,18.60
2022-09-15T02:24:41.569Z,18.60
2022-09-15T02:27:15.526Z,18.60
2022-09-15T02:29:46.208Z,18.60
2022-09-15T02:32:18.531Z,18.60
2022-09-15T02:34:51.474Z,18.60
2022-09-15T02:37:21.904Z,18.60
2022-09-15T02:39:54.739Z,18.70
2022-09-15T02:42:26.954Z,18.70
2022-09-15T02:44:55.329Z,18.70
2022-09-15T02:47:25.635Z,18.70
2022-09-15T02:49:53.969Z,18.70
2022-09-15T02:52:22.658Z,18.70
2022-09-15T02:54:51.323Z,18.70
2022-09-15T02:57:19.853Z,18.70
2022-09-15T03:00:05.163Z,18.70
2022-09-15T03:02:34.779Z,18.60
2022-09-15T03:05:02.892Z,18.60
2022-09-15T03:07:31.997Z,18.60
2022-09-15T03:10:00.334Z,18.60
2022-09-15T03:12:28.397Z,18.50
2022-09-15T03:14:56.451Z,18.50
2022-09-15T03:17:25.262Z,18.50
2022-09-15T03:19:54.729Z,18.40
2022-09-15T03:22:22.835Z,18.40
2022-09-15T03:24:51.848Z,18.50
2022-09-15T03:27:20.154Z,18.50
2022-09-15T03:29:48.362Z,18.50
2022-09-15T03:32:16.434Z,18.50
2022-09-15T03:34:44.697Z,18.60
2022-09-15T03:37:14.395Z,18.60
2022-09-15T03:39:42.715Z,18.60
2022-09-15T03:42:10.873Z,18.60
2022-09-15T03:44:38.948Z,18.60
2022-09-15T03:47:07.666Z,18.60
2022-09-15T03:49:35.758Z,18.60
2022-09-15T03:52:04.109Z,18.60
2022-09-15T03:54:35.481Z,18.60
2022-09-15T03:57:03.771Z,18.60
2022-09-15T03:59:37.461Z,18.60
2022-09-15T04:02:05.668Z,18.60
2022-09-15T04:04:33.772Z,18.60
2022-09-15T04:07:01.931Z,18.50
2022-09-15T04:09:30.654Z,18.50
2022-09-15T04:12:00.109Z,18.50
2022-09-15T04:14:28.194Z,18.50
2022-09-15T04:16:56.425Z,18.50
2022-09-15T04:19:24.503Z,18.40
2022-09-15T04:21:52.719Z,18.40
2022-09-15T04:24:20.860Z,18.40
2022-09-15T04:26:49.009Z,18.40
2022-09-15T04:29:18.839Z,18.40
2022-09-15T04:31:47.204Z,18.40
2022-09-15T04:34:15.525Z,18.40
2022-09-15T04:36:43.662Z,18.30
2022-09-15T04:39:11.969Z,18.30
2022-09-15T04:41:40.252Z,18.30
2022-09-15T04:44:08.628Z,18.30
2022-09-15T04:46:38.389Z,18.20
2022-09-15T04:49:06.763Z,18.20
2022-09-15T04:51:34.992Z,18.10
2022-09-15T04:54:03.130Z,18.10
2022-09-15T04:56:31.388Z,18.10
2022-09-15T04:59:03.897Z,18.10
2022-09-15T05:01:34.373Z,18.00
2022-09-15T05:04:05.061Z,18.00
2022-09-15T05:06:34.868Z,18.00
2022-09-15T05:09:09.017Z,18.00
2022-09-15T05:11:38.682Z,17.90
2022-09-15T05:14:06.884Z,17.90
2022-09-15T05:16:35.222Z,17.80
2022-09-15T05:19:05.189Z,17.80
2022-09-15T05:21:33.741Z,17.80
2022-09-15T05:24:02.024Z,17.70
2022-09-15T05:26:31.050Z,17.70
2022-09-15T05:28:59.370Z,17.70
2022-09-15T05:31:30.651Z,17.70
2022-09-15T05:34:01.488Z,17.70
2022-09-15T05:36:31.386Z,17.70
2022-09-15T05:39:00.354Z,17.70
2022-09-15T05:41:29.724Z,17.70
2022-09-15T05:43:59.403Z,17.80
2022-09-15T05:46:28.060Z,17.80
2022-09-15T05:48:58.198Z,17.80
2022-09-15T05:51:26.689Z,17.80
2022-09-15T05:53:56.181Z,17.80
2022-09-15T05:56:24.319Z,17.80
2022-09-15T05:58:52.680Z,17.80
2022-09-15T06:01:22.935Z,17.90
2022-09-15T06:03:51.730Z,17.90
2022-09-15T06:06:20.340Z,17.90
2022-09-15T06:08:54.170Z,18.00
2022-09-15T06:11:27.981Z,18.00
2022-09-15T06:13:56.243Z,18.00
2022-09-15T06:16:26.145Z,18.00
2022-09-15T06:18:55.071Z,18.00
2022-09-15T06:21:24.744Z,18.00
2022-09-15T06:23:54.832Z,18.10
2022-09-15T06:26:24.072Z,18.10
2022-09-15T06:28:55.443Z,18.10
2022-09-15T06:31:24.588Z,18.10
2022-09-15T06:33:55.854Z,18.10
2022-09-15T06:36:26.261Z,18.20
2022-09-15T06:38:54.827Z,18.20
2022-09-15T06:41:23.407Z,18.20
2022-09-15T06:43:53.580Z,18.30
2022-09-15T06:46:23.937Z,18.30
2022-09-15T06:48:53.556Z,18.40
2022-09-15T06:51:25.109Z,18.50
2022-09-15T06:53:54.968Z,18.60
2022-09-15T06:56:24.487Z,18.60
2022-09-15T06:58:54.126Z,18.70
2022-09-15T07:01:25.182Z,18.70
2022-09-15T07:03:53.526Z,18.80
2022-09-15T07:06:22.144Z,18.80
2022-09-15T07:08:51.166Z,18.90
2022-09-15T07:11:19.795Z,18.90
2022-09-15T07:13:49.103Z,19.00
2022-09-15T07:16:19.583Z,19.10
2022-09-15T07:18:48.193Z,19.10
2022-09-15T07:21:18.410Z,19.10
2022-09-15T07:23:46.947Z,19.20
2022-09-15T07:26:17.393Z,19.20
2022-09-15T07:28:47.737Z,19.30
2022-09-15T07:31:20.222Z,19.30
2022-09-15T07:33:48.547Z,19.40
2022-09-15T07:36:17.404Z,19.40
2022-09-15T07:38:48.073Z,19.50
2022-09-15T07:41:17.922Z,19.50
2022-09-15T07:43:47.951Z,19.70
2022-09-15T07:46:16.616Z,19.80
2022-09-15T07:48:47.331Z,19.90
2022-09-15T07:51:16.347Z,20.00
2022-09-15T07:53:45.263Z,20.10
2022-09-15T07:56:13.985Z,20.20
2022-09-15T07:58:42.165Z,20.30
2022-09-15T08:01:13.139Z,20.40
2022-09-15T08:03:42.398Z,20.50
2022-09-15T08:06:12.677Z,20.60
2022-09-15T08:08:44.003Z,20.80
2022-09-15T08:11:18.503Z,20.90
2022-09-15T08:13:47.415Z,21.00
2022-09-15T08:16:17.345Z,21.10
2022-09-15T08:18:45.948Z,21.20
2022-09-15T08:21:17.827Z,21.30
2022-09-15T08:23:45.939Z,21.40
2022-09-15T08:26:14.750Z,21.50
2022-09-15T08:28:43.195Z,21.60
2022-09-15T08:31:13.953Z,21.80
2022-09-15T08:33:45.739Z,22.00
2022-09-15T08:36:16.207Z,22.20
2022-09-15T08:38:46.000Z,22.40
2022-09-15T08:41:19.421Z,22.60
2022-09-15T08:43:52.563Z,22.70
2022-09-15T08:46:26.944Z,22.80
2022-09-15T08:49:03.230Z,22.80
2022-09-15T08:51:38.190Z,22.90
2022-09-15T08:54:12.602Z,22.90
2022-09-15T08:56:44.178Z,22.90
2022-09-15T08:59:16.551Z,23.00
2022-09-15T09:02:00.777Z,23.00
2022-09-15T09:04:48.045Z,23.00
2022-09-15T09:07:32.751Z,23.10
2022-09-15T09:10:08.430Z,23.10
2022-09-15T09:12:51.780Z,23.10
2022-09-15T09:15:27.976Z,23.20
2022-09-15T09:18:20.100Z,23.20
2022-09-15T09:21:04.350Z,23.20
2022-09-15T09:23:35.297Z,23.30
2022-09-15T09:26:05.504Z,23.40
2022-09-15T09:28:41.205Z,23.50
2022-09-15T09:31:17.232Z,23.50
2022-09-15T09:33:51.932Z,23.60
2022-09-15T09:36:20.809Z,23.60
2022-09-15T09:38:51.335Z,23.60
2022-09-15T09:41:22.277Z,23.60
2022-09-15T09:43:51.218Z,23.60
2022-09-15T09:46:21.231Z,23.60
2022-09-15T09:48:53.811Z,23.60
2022-09-15T09:51:33.294Z,23.60
2022-09-15T09:54:16.163Z,23.60
2022-09-15T09:56:44.999Z,23.60
2022-09-15T09:59:35.377Z,23.70
2022-09-15T10:02:15.711Z,23.70
2022-09-15T10:04:45.101Z,23.70
2022-09-15T10:07:14.753Z,23.60
2022-09-15T10:10:01.118Z,23.50
2022-09-15T10:12:33.186Z,23.50
2022-09-15T10:15:03.463Z,23.40
2022-09-15T10:17:42.783Z,23.40
2022-09-15T10:20:28.264Z,23.40
2022-09-15T10:23:04.363Z,23.40
2022-09-15T10:26:01.586Z,23.40
2022-09-15T10:28:29.993Z,23.50
2022-09-15T10:31:05.781Z,23.50
2022-09-15T10:33:36.027Z,23.50
2022-09-15T10:36:13.046Z,23.50
2022-09-15T10:38:44.977Z,23.60
2022-09-15T10:41:26.311Z,23.70
2022-09-15T10:44:26.059Z,23.90
2022-09-15T10:47:04.226Z,24.10
2022-09-15T10:49:49.289Z,24.30
2022-09-15T10:52:30.330Z,24.50
2022-09-15T10:55:14.374Z,24.70
2022-09-15T10:58:01.702Z,24.90
2022-09-15T11:00:37.114Z,25.10
2022-09-15T11:03:28.324Z,25.30
2022-09-15T11:06:13.362Z,25.40
2022-09-15T11:08:54.175Z,25.50
2022-09-15T11:11:31.993Z,25.60
2022-09-15T11:14:17.848Z,25.50
2022-09-15T11:17:00.110Z,25.40
2022-09-15T11:19:41.068Z,25.20
2022-09-15T11:22:13.694Z,25.00
2022-09-15T11:24:47.990Z,24.80
2022-09-15T11:27:22.673Z,24.60
2022-09-15T11:30:03.830Z,24.40
2022-09-15T11:32:37.696Z,24.20
2022-09-15T11:35:32.625Z,24.10
2022-09-15T11:38:09.987Z,23.90
2022-09-15T11:40:48.384Z,23.80
2022-09-15T11:43:23.277Z,23.70
2022-09-15T11:45:57.875Z,23.60
2022-09-15T11:48:31.603Z,23.50
2022-09-15T11:51:03.220Z,23.40
2022-09-15T11:53:38.563Z,23.40
2022-09-15T11:56:19.936Z,23.40
2022-09-15T11:59:02.830Z,23.40
2022-09-15T12:01:42.434Z,23.40
2022-09-15T12:04:18.256Z,23.50
2022-09-15T12:06:52.407Z,23.60
2022-09-15T12:09:21.862Z,23.70
2022-09-15T12:11:53.832Z,23.70
2022-09-15T12:14:29.015Z,23.70
2022-09-15T12:16:59.914Z,23.80
2022-09-15T12:19:48.792Z,23.70
2022-09-15T12:22:23.495Z,23.70
2022-09-15T12:25:01.155Z,23.70
2022-09-15T12:27:29.691Z,23.60
2022-09-15T12:29:59.642Z,23.60
2022-09-15T12:32:30.265Z,23.50
2022-09-15T12:35:01.308Z,23.50
2022-09-15T12:37:37.859Z,23.40
2022-09-15T12:40:08.104Z,23.30
2022-09-15T12:42:37.541Z,23.30
2022-09-15T12:45:08.004Z,23.20
2022-09-15T12:47:41.429Z,23.10
2022-09-15T12:50:24.452Z,23.00
2022-09-15T12:52:54.754Z,23.00
2022-09-15T12:55:25.105Z,22.90
2022-09-15T12:57:55.635Z,22.90
2022-09-15T13:00:33.635Z,22.90
2022-09-15T13:03:04.737Z,22.90
2022-09-15T13:05:52.676Z,22.90
2022-09-15T13:08:46.923Z,22.90
2022-09-15T13:11:18.369Z,23.00
2022-09-15T13:13:52.599Z,23.00
2022-09-15T13:16:29.427Z,23.10
2022-09-15T13:19:14.943Z,23.10
2022-09-15T13:21:47.302Z,23.30
2022-09-15T13:24:21.328Z,23.30
2022-09-15T13:26:54.618Z,23.30
2022-09-15T13:29:24.397Z,23.40
2022-09-15T13:31:59.396Z,23.50
2022-09-15T13:35:06.071Z,23.60
2022-09-15T13:38:15.222Z,23.70
2022-09-15T13:41:08.901Z,23.70
2022-09-15T13:43:57.340Z,23.70
2022-09-15T13:46:39.311Z,23.70
2022-09-15T13:49:32.750Z,23.70
2022-09-15T13:52:19.024Z,23.60
2022-09-15T13:55:21.370Z,23.60
2022-09-15T14:00:48.195Z,23.50
2022-09-15T14:03:23.860Z,23.40
2022-09-15T14:05:52.634Z,23.40
2022-09-15T14:08:29.457Z,23.30
2022-09-15T14:11:01.141Z,23.30
2022-09-15T14:13:30.848Z,23.20
2022-09-15T14:16:02.139Z,23.10
2022-09-15T14:18:32.027Z,23.10
2022-09-15T14:21:02.107Z,23.10
2022-09-15T14:23:36.795Z,23.20
2022-09-15T14:26:05.685Z,23.30
2022-09-15T14:28:34.484Z,23.40
2022-09-15T14:31:03.557Z,23.60
2022-09-15T14:33:38.216Z,23.70
2022-09-15T14:36:16.815Z,23.90
2022-09-15T14:39:03.355Z,24.10
2022-09-15T14:41:33.980Z,24.40
2022-09-15T14:44:02.948Z,24.60
2022-09-15T14:46:38.918Z,24.80
2022-09-15T14:49:10.864Z,24.90
2022-09-15T14:51:39.795Z,24.90
2022-09-15T14:54:18.910Z,24.80
2022-09-15T14:56:51.075Z,24.70
2022-09-15T14:59:26.681Z,24.60
2022-09-15T15:02:03.001Z,24.50
2022-09-15T15:04:38.124Z,24.40
2022-09-15T15:07:15.547Z,24.20
2022-09-15T15:09:49.129Z,24.10
2022-09-15T15:12:25.902Z,23.90
2022-09-15T15:14:55.281Z,23.80
2022-09-15T15:17:35.085Z,23.70
2022-09-15T15:20:16.177Z,23.50
2022-09-15T15:22:45.364Z,23.40
2022-09-15T15:25:28.866Z,23.30
2022-09-15T15:27:58.210Z,23.30
2022-09-15T15:30:46.823Z,23.10
2022-09-15T15:33:25.451Z,23.00
2022-09-15T15:36:08.117Z,23.00
2022-09-15T15:38:38.032Z,22.90
2022-09-15T15:41:09.074Z,22.80
2022-09-15T15:43:37.586Z,22.70
2022-09-15T15:46:07.588Z,22.70
2022-09-15T15:48:38.569Z,22.60
2022-09-15T15:51:08.885Z,22.60
2022-09-15T15:53:37.188Z,22.50
2022-09-15T15:56:05.410Z,22.50
2022-09-15T15:58:34.932Z,22.40
2022-09-15T16:01:03.126Z,22.40
2022-09-15T16:03:31.288Z,22.30
2022-09-15T16:06:00.570Z,22.20
2022-09-15T16:08:31.665Z,22.20
2022-09-15T16:11:01.773Z,22.10
2022-09-15T16:13:30.358Z,22.10
2022-09-15T16:16:01.315Z,22.00
2022-09-15T16:18:29.898Z,22.00
2022-09-15T16:20:58.053Z,21.90
2022-09-15T16:23:26.374Z,21.90
2022-09-15T16:25:58.048Z,21.90
2022-09-15T16:28:26.261Z,21.80
2022-09-15T16:30:54.325Z,21.80
2022-09-15T16:33:24.931Z,21.80
2022-09-15T16:35:56.133Z,21.70
2022-09-15T16:38:28.155Z,21.70
2022-09-15T16:40:56.742Z,21.60
2022-09-15T16:43:24.844Z,21.60
2022-09-15T16:45:53.981Z,21.50
2022-09-15T16:48:23.483Z,21.50
2022-09-15T16:53:40.779Z,21.40
2022-09-15T16:56:11.416Z,21.30
2022-09-15T16:58:39.821Z,21.30
2022-09-15T17:01:09.000Z,21.30
2022-09-15T17:03:39.074Z,21.20
2022-09-15T17:06:07.755Z,21.10
2022-09-15T17:08:36.138Z,21.10
2022-09-15T17:11:06.072Z,21.10
2022-09-15T17:13:35.135Z,21.00
2022-09-15T17:16:05.091Z,21.00
2022-09-15T17:18:33.485Z,21.00
2022-09-15T17:21:02.936Z,20.90
2022-09-15T17:23:35.408Z,20.90
2022-09-15T17:26:05.583Z,20.80
2022-09-15T17:28:35.053Z,20.80
2022-09-15T17:31:05.269Z,20.70
2022-09-15T17:33:34.039Z,20.70
2022-09-15T17:36:03.837Z,20.60
2022-09-15T17:38:32.967Z,20.60
2022-09-15T17:41:01.205Z,20.50
2022-09-15T17:43:30.755Z,20.60
2022-09-15T17:45:59.384Z,20.40
2022-09-15T17:48:27.576Z,20.40
2022-09-15T17:50:55.755Z,20.40
2022-09-15T17:53:27.351Z,20.30
2022-09-15T17:55:56.549Z,20.30
2022-09-15T17:58:26.578Z,20.20
2022-09-15T18:00:55.648Z,20.10
2022-09-15T18:03:27.678Z,20.10
2022-09-15T18:05:56.736Z,20.10
2022-09-15T18:08:26.909Z,20.00
2022-09-15T18:10:55.314Z,20.00
2022-09-15T18:13:26.899Z,19.90
2022-09-15T18:15:55.626Z,19.90
2022-09-15T18:18:25.647Z,19.90
2022-09-15T18:20:56.738Z,19.90
2022-09-15T18:23:28.402Z,19.80
2022-09-15T18:25:56.729Z,19.80
2022-09-15T18:28:24.798Z,19.80
2022-09-15T18:30:53.081Z,19.80
2022-09-15T18:33:23.083Z,19.80
2022-09-15T18:35:53.626Z,19.80
2022-09-15T18:38:22.428Z,19.70
2022-09-15T18:40:55.283Z,19.70
2022-09-15T18:43:25.100Z,19.70
2022-09-15T18:45:55.120Z,19.70
2022-09-15T18:48:23.683Z,19.70
2022-09-15T18:50:53.107Z,19.70
2022-09-15T18:53:21.258Z,19.70
2022-09-15T18:55:49.358Z,19.70
2022-09-15T18:58:19.335Z,19.70
2022-09-15T19:00:48.372Z,19.60
2022-09-15T19:03:16.458Z,19.60
2022-09-15T19:05:45.776Z,19.60
2022-09-15T19:08:15.209Z,19.60
2022-09-15T19:10:44.241Z,19.50
2022-09-15T19:13:14.178Z,19.50
2022-09-15T19:15:44.601Z,19.50
2022-09-15T19:18:13.050Z,19.50
2022-09-15T19:20:41.792Z,19.50
2022-09-15T19:23:10.688Z,19.50
2022-09-15T19:25:41.426Z,19.50
2022-09-15T19:28:09.911Z,19.50
2022-09-15T19:30:38.064Z,19.50
2022-09-15T19:33:07.541Z,19.50
2022-09-15T19:35:35.731Z,19.50
2022-09-15T19:38:03.795Z,19.50
2022-09-15T19:40:32.090Z,19.50
2022-09-15T19:43:00.251Z,19.50
2022-09-15T19:45:28.341Z,19.40
2022-09-15T19:47:57.088Z,19.40
2022-09-15T19:50:26.560Z,19.40
2022-09-15T19:52:59.435Z,19.30
2022-09-15T19:55:28.797Z,19.30
2022-09-15T19:57:56.971Z,19.30
2022-09-15T20:00:25.199Z,19.30
2022-09-15T20:02:54.528Z,19.20
2022-09-15T20:05:22.809Z,19.20
2022-09-15T20:07:53.312Z,19.20
2022-09-15T20:10:21.506Z,19.20
2022-09-15T20:12:49.563Z,19.20
2022-09-15T20:15:23.330Z,19.20
2022-09-15T20:17:51.623Z,19.20
2022-09-15T20:20:19.812Z,19.20
2022-09-15T20:22:47.913Z,19.20
2022-09-15T20:25:17.551Z,19.10
2022-09-15T20:27:47.604Z,19.10
2022-09-15T20:30:15.706Z,19.10
2022-09-15T20:32:43.800Z,19.00
2022-09-15T20:35:11.920Z,19.00
2022-09-15T20:37:40.858Z,18.90
2022-09-15T20:40:10.359Z,18.90
2022-09-15T20:42:40.399Z,18.80
2022-09-15T20:45:09.571Z,18.90
2022-09-15T20:47:37.659Z,18.80
2022-09-15T20:50:06.490Z,18.80
2022-09-15T20:52:38.192Z,18.80
2022-09-15T20:55:07.163Z,18.80
2022-09-15T20:57:35.461Z,18.70
2022-09-15T21:00:08.933Z,18.70
2022-09-15T21:02:37.071Z,18.70
2022-09-15T21:05:05.658Z,18.60
2022-09-15T21:07:34.385Z,18.60
2022-09-15T21:10:02.510Z,18.60
2022-09-15T21:12:30.640Z,18.60
2022-09-15T21:14:58.744Z,18.50
2022-09-15T21:17:28.947Z,18.50
2022-09-15T21:19:57.071Z,18.50
2022-09-15T21:22:25.228Z,18.50
2022-09-15T21:24:53.350Z,18.50
2022-09-15T21:27:30.647Z,18.50
2022-09-15T21:29:59.171Z,18.40
2022-09-15T21:32:29.845Z,18.50
2022-09-15T21:34:57.958Z,18.40
2022-09-15T21:37:28.275Z,18.40
2022-09-15T21:39:56.947Z,18.40
2022-09-15T21:42:25.224Z,18.40
2022-09-15T21:44:53.833Z,18.40
2022-09-15T21:47:22.492Z,18.30
2022-09-15T21:49:52.319Z,18.30
2022-09-15T21:52:23.191Z,18.30
2022-09-15T21:54:51.956Z,18.30
2022-09-15T21:57:20.040Z,18.20
2022-09-15T21:59:48.123Z,18.20
2022-09-15T22:02:17.125Z,18.10
2022-09-15T22:04:45.539Z,18.10
2022-09-15T22:07:19.466Z,18.10
2022-09-15T22:09:48.360Z,18.10
2022-09-15T22:12:16.479Z,18.00
2022-09-15T22:14:44.624Z,17.90
2022-09-15T22:17:12.916Z,17.90
2022-09-15T22:19:41.038Z,17.80
2022-09-15T22:22:09.210Z,17.80
2022-09-15T22:24:38.860Z,17.80
2022-09-15T22:27:07.086Z,17.70
2022-09-15T22:29:35.206Z,17.70
2022-09-15T22:32:03.754Z,17.70
2022-09-15T22:34:31.830Z,17.60
2022-09-15T22:36:59.912Z,17.60
2022-09-15T22:39:50.231Z,17.50
2022-09-15T22:42:17.627Z,17.50
2022-09-15T22:44:45.693Z,17.50
2022-09-15T22:47:13.754Z,17.40
2022-09-15T22:49:41.848Z,17.40
2022-09-15T22:52:10.815Z,17.40
2022-09-15T22:54:38.894Z,17.40
2022-09-15T22:57:07.226Z,17.30
2022-09-15T22:59:36.751Z,17.30
2022-09-15T23:02:05.003Z,17.20
2022-09-15T23:04:33.077Z,17.20
2022-09-15T23:07:01.233Z,17.20
2022-09-15T23:09:29.626Z,17.10
2022-09-15T23:11:57.785Z,17.10
2022-09-15T23:14:26.007Z,17.00
2022-09-15T23:16:55.672Z,17.00
2022-09-15T23:19:23.731Z,16.90
2022-09-15T23:21:52.239Z,16.90
2022-09-15T23:24:20.515Z,16.90
2022-09-15T23:26:48.827Z,16.90
2022-09-15T23:29:17.017Z,16.80
2022-09-15T23:31:45.164Z,16.80
2022-09-15T23:34:14.641Z,16.70
2022-09-15T23:36:42.821Z,16.80
2022-09-15T23:39:11.157Z,16.70
2022-09-15T23:41:40.664Z,16.70
2022-09-15T23:44:08.970Z,16.70
2022-09-15T23:46:37.144Z,16.70
2022-09-15T23:49:05.567Z,16.60
2022-09-15T23:51:35.834Z,16.60
2022-09-15T23:54:04.745Z,16.50
2022-09-15T23:56:33.821Z,16.50
2022-09-15T23:59:01.983Z,16.50
